Terminal Aerodrome Forecast
Issued by NWS

Home | Current Version | Previous Version | Text Only | Print | Product List | Glossary On
Versions: 1 2 3 4 5 6 7 8 9 10 11 12 13
000
FTUS45 KABQ 281700
TAFLVS
TAF
KLVS 281720Z 2818/2918 32005KT P6SM SKC
     FM282000 24013G23KT P6SM FEW100
     FM290200 25008KT P6SM SKC
     FM291200 03006KT P6SM SKC=

USA.gov is the U.S. government's official web portal to all federal, state and local government web resources and services.